Time;durP1;ratioP1;P1;durP2;ratioP2;P2;SDS_P1;SDS_P2;PMS_P1;PMS_P2;Temp;Humidity;BMP_temperature;BMP_pressure;BME280_temperature;BME280_humidity;BME280_pressure;Samples;Min_cycle;Max_cycle;Signal;HPM_P1;HPM_P2
2024/01/11 15:03:40;;;;;;;;;;;-2.20;99.90;;;;;;5113114;27;19916;-94
2024/01/11 15:06:05;;;;;;;;;;;-2.30;99.90;;;;;;5090684;28;19934;-96
2024/01/11 15:08:31;;;;;;;;;;;-2.20;99.90;;;;;;5074335;28;20411;-94
2024/01/11 15:10:56;;;;;;;;;;;-2.20;99.90;;;;;;5074413;28;20256;-94
2024/01/11 15:13:21;;;;;;;;;;;-2.10;99.90;;;;;;5081167;28;19961;-92
2024/01/11 15:15:47;;;;;;;;;;;-2.00;99.90;;;;;;5093782;28;19912;-92
2024/01/11 15:18:13;;;;;;;;;;;-1.90;99.90;;;;;;5094126;28;19916;-92
2024/01/11 15:20:38;;;;;;;;;;;-1.90;99.90;;;;;;5090346;28;19947;-91
2024/01/11 15:23:05;;;;;;;;;;;-1.80;99.90;;;;;;5094143;28;20014;-93
2024/01/11 15:25:30;;;;;;;;;;;-1.70;99.90;;;;;;5096818;28;19908;-94
2024/01/11 15:27:56;;;;;;;;;;;-1.70;99.90;;;;;;5082473;28;19919;-94
2024/01/11 15:30:30;;;;;;;;;;;-1.60;99.90;;;;;;5080239;28;19915;-94
2024/01/11 15:32:55;;;;;;;;;;;-1.60;99.90;;;;;;5102102;28;19908;-94
2024/01/11 15:35:21;;;;;;;;;;;-1.50;99.90;;;;;;5096353;28;19912;-94
2024/01/11 15:37:46;;;;;;;;;;;-1.50;99.90;;;;;;5094899;28;19930;-93
2024/01/11 15:40:12;;;;;;;;;;;-1.40;99.90;;;;;;5095931;28;20267;-93
2024/01/11 15:42:38;;;;;;;;;;;-1.40;99.90;;;;;;5095489;28;19916;-94
2024/01/11 15:45:05;;;;;;;;;;;-1.30;99.90;;;;;;5085204;28;19931;-94
2024/01/11 15:47:31;;;;;;;;;;;-1.30;99.90;;;;;;5077045;28;19971;-95
2024/01/11 15:49:58;;;;;;;;;;;-1.30;99.90;;;;;;5074471;28;19913;-95
2024/01/11 15:52:24;;;;;;;;;;;-1.30;99.90;;;;;;5093350;28;19908;-94
2024/01/11 15:54:49;;;;;;;;;;;-1.30;99.90;;;;;;5096110;28;19912;-95
2024/01/11 15:57:15;;;;;;;;;;;-1.30;99.90;;;;;;5095895;28;19955;-94
2024/01/11 15:59:41;;;;;;;;;;;-1.20;99.90;;;;;;5099215;28;19915;-94
2024/01/11 16:02:08;;;;;;;;;;;-1.30;99.90;;;;;;5097193;28;19931;-95
2024/01/11 16:04:38;;;;;;;;;;;-1.30;99.90;;;;;;5099565;28;19916;-95
2024/01/11 16:07:03;;;;;;;;;;;-1.30;99.90;;;;;;5097378;28;19908;-95
2024/01/11 16:09:29;;;;;;;;;;;-1.30;99.90;;;;;;5093985;28;19923;-95
2024/01/11 16:11:57;;;;;;;;;;;-1.30;99.90;;;;;;5093705;28;19908;-94
2024/01/11 16:14:23;;;;;;;;;;;-1.30;99.90;;;;;;5084738;28;19999;-93
2024/01/11 16:16:48;;;;;;;;;;;-1.30;99.90;;;;;;5080043;28;20421;-93
2024/01/11 16:19:14;;;;;;;;;;;-1.30;99.90;;;;;;5075290;28;19912;-93
2024/01/11 16:21:39;;;;;;;;;;;-1.30;99.90;;;;;;5073038;28;19959;-93
2024/01/11 16:24:04;;;;;;;;;;;-1.30;99.90;;;;;;5081053;28;20275;-92
2024/01/11 16:26:33;;;;;;;;;;;-1.30;99.90;;;;;;5079474;28;19915;-94
2024/01/11 16:28:58;;;;;;;;;;;-1.30;99.90;;;;;;5059627;28;19962;-93
2024/01/11 16:31:24;;;;;;;;;;;-1.30;99.90;;;;;;5059469;28;19912;-93
2024/01/11 16:33:49;;;;;;;;;;;-1.30;99.90;;;;;;5059495;28;19940;-93
2024/01/11 16:36:15;;;;;;;;;;;-1.30;99.90;;;;;;5065636;28;19915;-95
2024/01/11 16:38:42;;;;;;;;;;;-1.30;99.90;;;;;;5080388;28;19947;-94
2024/01/11 16:41:08;;;;;;;;;;;-1.40;99.90;;;;;;5080182;28;19966;-92
2024/01/11 16:43:34;;;;;;;;;;;-1.40;99.90;;;;;;5064457;28;19919;-94
2024/01/11 16:46:00;;;;;;;;;;;-1.40;99.90;;;;;;5074088;28;19908;-94
2024/01/11 16:48:26;;;;;;;;;;;-1.40;99.90;;;;;;5083488;28;20364;-94
2024/01/11 16:50:52;;;;;;;;;;;-1.40;99.90;;;;;;5086354;28;20312;-91
2024/01/11 16:53:18;;;;;;;;;;;-1.40;99.90;;;;;;5085464;28;19919;-94
2024/01/11 16:55:44;;;;;;;;;;;-1.40;99.90;;;;;;5084082;28;20263;-95
2024/01/11 16:58:10;;;;;;;;;;;-1.40;99.90;;;;;;5085275;28;19916;-95
2024/01/11 17:00:40;;;;;;;;;;;-1.40;99.90;;;;;;5081884;28;20368;-94
2024/01/11 17:03:05;;;;;;;;;;;-1.40;99.90;;;;;;5083877;28;19931;-94
2024/01/11 17:05:32;;;;;;;;;;;-1.40;99.90;;;;;;5085874;28;19971;-96
2024/01/11 17:07:57;;;;;;;;;;;-1.40;99.90;;;;;;5082243;28;19922;-88
2024/01/11 17:10:23;;;;;;;;;;;-1.40;99.90;;;;;;5095628;28;20395;-89
2024/01/11 17:12:48;;;;;;;;;;;-1.40;99.90;;;;;;5096287;28;19908;-88
2024/01/11 17:15:15;;;;;;;;;;;-1.40;99.90;;;;;;5078217;28;19909;-88
2024/01/11 17:17:41;;;;;;;;;;;-1.40;99.90;;;;;;5095362;28;19912;-87
2024/01/11 17:20:07;;;;;;;;;;;-1.40;99.90;;;;;;5077469;28;19912;-88
2024/01/11 17:22:33;;;;;;;;;;;-1.40;99.90;;;;;;5076366;28;19920;-89
2024/01/11 17:24:58;;;;;;;;;;;-1.30;99.90;;;;;;5077145;28;19915;-89
2024/01/11 17:27:24;;;;;;;;;;;-1.40;99.90;;;;;;5094960;28;19943;-88
2024/01/11 17:29:49;;;;;;;;;;;-1.30;99.90;;;;;;5095579;28;19915;-88
2024/01/11 17:32:15;;;;;;;;;;;-1.30;99.90;;;;;;5095680;28;19999;-88
2024/01/11 17:34:40;;;;;;;;;;;-1.40;99.90;;;;;;5095046;28;19937;-88
2024/01/11 17:37:06;;;;;;;;;;;-1.40;99.90;;;;;;5094204;28;19912;-88
2024/01/11 17:39:31;;;;;;;;;;;-1.30;99.90;;;;;;5073769;28;20291;-88
2024/01/11 17:41:59;;;;;;;;;;;-1.40;99.90;;;;;;5076929;28;19959;-89
2024/01/11 17:44:25;;;;;;;;;;;-1.40;99.90;;;;;;5077282;28;19916;-88
2024/01/11 17:46:51;;;;;;;;;;;-1.30;99.90;;;;;;5095363;28;19908;-89
2024/01/11 17:49:16;;;;;;;;;;;-1.40;99.90;;;;;;5074295;28;20410;-88
2024/01/11 17:51:42;;;;;;;;;;;-1.40;99.90;;;;;;5075240;28;20030;-89
2024/01/11 17:54:07;;;;;;;;;;;-1.40;99.90;;;;;;5095040;28;19970;-88
2024/01/11 17:56:33;;;;;;;;;;;-1.40;99.90;;;;;;5064045;28;19912;-90
2024/01/11 17:58:59;;;;;;;;;;;-1.30;99.90;;;;;;5089903;28;19948;-89
2024/01/11 18:01:25;;;;;;;;;;;-1.30;99.90;;;;;;5076246;28;20010;-89
2024/01/11 18:03:51;;;;;;;;;;;-1.30;99.90;;;;;;5076026;28;20046;-90
2024/01/11 18:06:17;;;;;;;;;;;-1.30;99.90;;;;;;5076993;28;19908;-88
2024/01/11 18:08:42;;;;;;;;;;;-1.30;99.90;;;;;;5092128;28;19908;-89
2024/01/11 18:11:11;;;;;;;;;;;-1.30;99.90;;;;;;5092632;28;20010;-89
2024/01/11 18:13:37;;;;;;;;;;;-1.30;99.90;;;;;;5075324;28;19954;-90
2024/01/11 18:16:03;;;;;;;;;;;-1.30;99.90;;;;;;5073298;28;19909;-89
2024/01/11 18:18:29;;;;;;;;;;;-1.30;99.90;;;;;;5077174;28;20308;-89
2024/01/11 18:20:55;;;;;;;;;;;-1.30;99.90;;;;;;5094731;28;19908;-89
2024/01/11 18:23:21;;;;;;;;;;;-1.30;99.90;;;;;;5076555;28;19999;-89
2024/01/11 18:25:46;;;;;;;;;;;-1.30;99.90;;;;;;5076607;28;19912;-89
2024/01/11 18:28:11;;;;;;;;;;;-1.30;99.90;;;;;;5076462;28;19908;-89
2024/01/11 18:30:37;;;;;;;;;;;-1.30;99.90;;;;;;5076457;28;19912;-89
2024/01/11 18:33:03;;;;;;;;;;;-1.20;99.90;;;;;;5076838;28;19908;-96
2024/01/11 18:35:29;;;;;;;;;;;-1.20;99.90;;;;;;5077432;28;19915;-94
2024/01/11 18:37:54;;;;;;;;;;;-1.20;99.90;;;;;;5076728;28;20008;-94
2024/01/11 18:40:20;;;;;;;;;;;-1.20;99.90;;;;;;5076637;28;20320;-93
2024/01/11 18:42:45;;;;;;;;;;;-1.20;99.90;;;;;;5061580;28;19912;-96
2024/01/11 18:45:11;;;;;;;;;;;-1.20;99.90;;;;;;5073702;28;19913;-95
2024/01/11 18:47:37;;;;;;;;;;;-1.20;99.90;;;;;;5060637;28;19999;-94
2024/01/11 18:50:04;;;;;;;;;;;-1.20;99.90;;;;;;5064958;28;20342;-94
2024/01/11 18:52:30;;;;;;;;;;;-1.20;99.90;;;;;;5077173;28;19938;-94
2024/01/11 18:54:56;;;;;;;;;;;-1.20;99.90;;;;;;5079180;28;20353;-93
2024/01/11 18:57:21;;;;;;;;;;;-1.10;99.90;;;;;;5078603;28;19918;-94
2024/01/11 18:59:47;;;;;;;;;;;-1.10;99.90;;;;;;5077337;28;19908;-94
